sensor_id;sensor_type;location;lat;lon;timestamp;pressure;altitude;pressure_sealevel;temperature;humidity
33496;BME280;19836;55.812;37.560;2022-11-22T16:57:12;98668.44;;;3.60;79.14
33496;BME280;19836;55.812;37.560;2022-11-22T16:59:38;98677.22;;;3.61;79.04
33496;BME280;19836;55.812;37.560;2022-11-22T17:02:11;98671.16;;;3.56;79.00
33496;BME280;19836;55.812;37.560;2022-11-22T17:04:37;98666.78;;;3.53;79.08
33496;BME280;19836;55.812;37.560;2022-11-22T17:07:08;98665.94;;;3.53;79.04
33496;BME280;19836;55.812;37.560;2022-11-22T17:09:35;98665.00;;;3.55;79.21
33496;BME280;19836;55.812;37.560;2022-11-22T17:12:01;98659.59;;;3.60;79.39
33496;BME280;19836;55.812;37.560;2022-11-22T17:14:29;98672.84;;;3.60;79.21
33496;BME280;19836;55.812;37.560;2022-11-22T17:16:55;98669.25;;;3.64;79.16
33496;BME280;19836;55.812;37.560;2022-11-22T17:19:21;98670.16;;;3.63;79.02
33496;BME280;19836;55.812;37.560;2022-11-22T17:21:47;98667.53;;;3.60;79.08
33496;BME280;19836;55.812;37.560;2022-11-22T17:24:17;98668.34;;;3.63;79.21
33496;BME280;19836;55.812;37.560;2022-11-22T17:26:44;98660.38;;;3.65;78.95
33496;BME280;19836;55.812;37.560;2022-11-22T17:29:10;98657.81;;;3.62;79.01
33496;BME280;19836;55.812;37.560;2022-11-22T17:31:40;98658.78;;;3.58;78.93
33496;BME280;19836;55.812;37.560;2022-11-22T17:34:11;98667.53;;;3.60;78.95
33496;BME280;19836;55.812;37.560;2022-11-22T17:37:22;98670.19;;;3.60;79.02
33496;BME280;19836;55.812;37.560;2022-11-22T17:46:07;98669.22;;;3.65;79.27
33496;BME280;19836;55.812;37.560;2022-11-22T17:48:34;98669.25;;;3.64;79.14
33496;BME280;19836;55.812;37.560;2022-11-22T17:53:54;98669.09;;;3.70;79.00
33496;BME280;19836;55.812;37.560;2022-11-22T17:56:23;98676.16;;;3.71;79.16
33496;BME280;19836;55.812;37.560;2022-11-22T18:01:43;98667.25;;;3.75;79.14
33496;BME280;19836;55.812;37.560;2022-11-22T18:04:15;98667.25;;;3.75;79.32
33496;BME280;19836;55.812;37.560;2022-11-22T18:06:42;98676.16;;;3.71;79.30
33496;BME280;19836;55.812;37.560;2022-11-22T18:09:10;98671.75;;;3.70;79.24
33496;BME280;19836;55.812;37.560;2022-11-22T18:11:39;98679.78;;;3.67;79.28
33496;BME280;19836;55.812;37.560;2022-11-22T18:14:05;98679.84;;;3.64;79.38
33496;BME280;19836;55.812;37.560;2022-11-22T18:16:31;98676.28;;;3.63;79.38
33496;BME280;19836;55.812;37.560;2022-11-22T18:18:57;98674.53;;;3.64;79.45
33496;BME280;19836;55.812;37.560;2022-11-22T18:21:25;98670.97;;;3.65;79.46
33496;BME280;19836;55.812;37.560;2022-11-22T18:23:53;98663.81;;;3.70;79.46
33496;BME280;19836;55.812;37.560;2022-11-22T18:26:21;98669.97;;;3.72;79.57
33496;BME280;19836;55.812;37.560;2022-11-22T18:28:49;98665.50;;;3.74;79.53
33496;BME280;19836;55.812;37.560;2022-11-22T18:31:15;98669.88;;;3.76;79.60
33496;BME280;19836;55.812;37.560;2022-11-22T18:33:41;98675.19;;;3.75;79.49
33496;BME280;19836;55.812;37.560;2022-11-22T18:36:17;98681.44;;;3.71;79.48
33496;BME280;19836;55.812;37.560;2022-11-22T18:38:57;98681.53;;;3.68;79.48
33496;BME280;19836;55.812;37.560;2022-11-22T18:41:23;98680.59;;;3.70;79.57
33496;BME280;19836;55.812;37.560;2022-11-22T18:43:49;98685.00;;;3.70;79.67
33496;BME280;19836;55.812;37.560;2022-11-22T18:46:15;98681.44;;;3.71;79.75
33496;BME280;19836;55.812;37.560;2022-11-22T18:48:46;98677.06;;;3.68;79.76
33496;BME280;19836;55.812;37.560;2022-11-22T18:51:13;98679.78;;;3.67;79.82
33496;BME280;19836;55.812;37.560;2022-11-22T18:53:39;98675.38;;;3.66;79.76
33496;BME280;19836;55.812;37.560;2022-11-22T18:56:07;98684.16;;;3.68;79.90
33496;BME280;19836;55.812;37.560;2022-11-22T18:58:35;98677.06;;;3.68;79.69
33496;BME280;19836;55.812;37.560;2022-11-22T19:07:24;98680.75;;;3.63;79.72
33496;BME280;19836;55.812;37.560;2022-11-22T19:09:54;98671.06;;;3.62;79.64
33496;BME280;19836;55.812;37.560;2022-11-22T19:12:20;98679.84;;;3.64;79.79
33496;BME280;19836;55.812;37.560;2022-11-22T19:14:47;98672.78;;;3.63;79.82
33496;BME280;19836;55.812;37.560;2022-11-22T19:17:13;98677.19;;;3.64;79.63
33496;BME280;19836;55.812;37.560;2022-11-22T19:19:39;98671.06;;;3.62;79.86
33496;BME280;19836;55.812;37.560;2022-11-22T19:22:11;98675.44;;;3.63;80.08
33496;BME280;19836;55.812;37.560;2022-11-22T19:24:37;98670.13;;;3.64;79.91
33496;BME280;19836;55.812;37.560;2022-11-22T19:27:04;98670.94;;;3.66;79.82
33496;BME280;19836;55.812;37.560;2022-11-22T19:29:30;98664.69;;;3.70;79.82
33496;BME280;19836;55.812;37.560;2022-11-22T19:31:57;98657.56;;;3.74;79.91
33496;BME280;19836;55.812;37.560;2022-11-22T19:34:32;98654.00;;;3.75;79.92
33496;BME280;19836;55.812;37.560;2022-11-22T19:37:01;98649.59;;;3.74;79.94
33496;BME280;19836;55.812;37.560;2022-11-22T19:39:30;98656.66;;;3.75;79.95
33496;BME280;19836;55.812;37.560;2022-11-22T19:42:08;98647.88;;;3.73;79.91
33496;BME280;19836;55.812;37.560;2022-11-22T19:44:37;98649.75;;;3.68;79.76
33496;BME280;19836;55.812;37.560;2022-11-22T19:47:03;98640.88;;;3.69;79.85
33496;BME280;19836;55.812;37.560;2022-11-22T19:49:29;98639.19;;;3.65;79.73
33496;BME280;19836;55.812;37.560;2022-11-22T19:51:55;98657.72;;;3.66;79.85
33496;BME280;19836;55.812;37.560;2022-11-22T19:54:21;98655.09;;;3.65;79.98
33496;BME280;19836;55.812;37.560;2022-11-22T19:56:48;98664.84;;;3.63;79.93
33496;BME280;19836;55.812;37.560;2022-11-22T19:59:14;98652.44;;;3.65;79.78
33496;BME280;19836;55.812;37.560;2022-11-22T20:01:41;98646.22;;;3.66;79.98
33496;BME280;19836;55.812;37.560;2022-11-22T20:04:08;98646.22;;;3.66;79.76
33496;BME280;19836;55.812;37.560;2022-11-22T20:06:35;98642.63;;;3.70;79.82
33496;BME280;19836;55.812;37.560;2022-11-22T20:09:06;98645.34;;;3.67;79.87
33496;BME280;19836;55.812;37.560;2022-11-22T20:11:33;98648.94;;;3.64;79.76
33496;BME280;19836;55.812;37.560;2022-11-22T20:13:59;98654.16;;;3.67;79.94
33496;BME280;19836;55.812;37.560;2022-11-22T20:16:26;98660.25;;;3.71;79.83
33496;BME280;19836;55.812;37.560;2022-11-22T20:18:57;98663.81;;;3.70;79.90
33496;BME280;19836;55.812;37.560;2022-11-22T20:21:24;98680.72;;;3.64;79.78
33496;BME280;19836;55.812;37.560;2022-11-22T20:23:51;98672.78;;;3.63;80.02
33496;BME280;19836;55.812;37.560;2022-11-22T20:26:17;98674.50;;;3.67;79.87
33496;BME280;19836;55.812;37.560;2022-11-22T20:28:43;98677.13;;;3.67;79.94
33496;BME280;19836;55.812;37.560;2022-11-22T20:31:16;98681.44;;;3.71;80.00
33496;BME280;19836;55.812;37.560;2022-11-22T20:33:43;98674.34;;;3.73;79.89
33496;BME280;19836;55.812;37.560;2022-11-22T20:36:11;98683.22;;;3.72;79.87
33496;BME280;19836;55.812;37.560;2022-11-22T20:38:37;98684.94;;;3.73;79.86
33496;BME280;19836;55.812;37.560;2022-11-22T20:41:03;98676.16;;;3.71;79.78
33496;BME280;19836;55.812;37.560;2022-11-22T20:43:31;98681.53;;;3.68;79.79
33496;BME280;19836;55.812;37.560;2022-11-22T20:46:10;98671.78;;;3.68;79.81
33496;BME280;19836;55.812;37.560;2022-11-22T20:48:36;98680.66;;;3.66;79.90
33496;BME280;19836;55.812;37.560;2022-11-22T20:51:04;98683.31;;;3.66;79.78
33496;BME280;19836;55.812;37.560;2022-11-22T20:53:30;98675.34;;;3.67;79.96
33496;BME280;19836;55.812;37.560;2022-11-22T20:55:56;98663.81;;;3.70;80.03
33496;BME280;19836;55.812;37.560;2022-11-22T20:58:22;98661.16;;;3.70;79.76
33496;BME280;19836;55.812;37.560;2022-11-22T21:00:48;98665.56;;;3.71;79.85
33496;BME280;19836;55.812;37.560;2022-11-22T21:03:14;98673.44;;;3.74;79.87
33496;BME280;19836;55.812;37.560;2022-11-22T21:05:40;98661.00;;;3.77;79.69
33496;BME280;19836;55.812;37.560;2022-11-22T21:08:06;98653.09;;;3.76;79.65
33496;BME280;19836;55.812;37.560;2022-11-22T21:10:31;98643.41;;;3.75;79.83
33496;BME280;19836;55.812;37.560;2022-11-22T21:12:57;98641.63;;;3.75;79.86
33496;BME280;19836;55.812;37.560;2022-11-22T21:15:23;98649.56;;;3.77;79.84
33496;BME280;19836;55.812;37.560;2022-11-22T21:17:49;98651.28;;;3.78;79.71
33496;BME280;19836;55.812;37.560;2022-11-22T21:20:15;98645.88;;;3.82;79.63
33496;BME280;19836;55.812;37.560;2022-11-22T21:22:40;98648.53;;;3.82;79.61
33496;BME280;19836;55.812;37.560;2022-11-22T21:25:06;98647.75;;;3.77;79.59
33496;BME280;19836;55.812;37.560;2022-11-22T21:27:32;98647.75;;;3.77;79.65
33496;BME280;19836;55.812;37.560;2022-11-22T21:29:58;98646.06;;;3.75;79.57
33496;BME280;19836;55.812;37.560;2022-11-22T21:32:24;98650.44;;;3.76;79.65
33496;BME280;19836;55.812;37.560;2022-11-22T21:34:50;98646.84;;;3.78;79.63
33496;BME280;19836;55.812;37.560;2022-11-22T21:37:16;98651.28;;;3.78;79.60
33496;BME280;19836;55.812;37.560;2022-11-22T21:39:42;98646.06;;;3.75;79.48
33496;BME280;19836;55.812;37.560;2022-11-22T21:42:08;98638.09;;;3.75;79.44
33496;BME280;19836;55.812;37.560;2022-11-22T21:44:34;98640.75;;;3.75;79.58
33496;BME280;19836;55.812;37.560;2022-11-22T21:47:00;98637.19;;;3.76;79.86
33496;BME280;19836;55.812;37.560;2022-11-22T21:49:25;98639.94;;;3.73;79.63
33496;BME280;19836;55.812;37.560;2022-11-22T21:51:51;98637.28;;;3.73;79.68
33496;BME280;19836;55.812;37.560;2022-11-22T21:54:17;98637.28;;;3.73;79.81
33496;BME280;19836;55.812;37.560;2022-11-22T21:56:42;98640.91;;;3.67;79.62
33496;BME280;19836;55.812;37.560;2022-11-22T21:59:08;98648.00;;;3.67;79.52
33496;BME280;19836;55.812;37.560;2022-11-22T22:01:35;98653.31;;;3.65;79.48
33496;BME280;19836;55.812;37.560;2022-11-22T22:04:01;98653.34;;;3.64;79.55
33496;BME280;19836;55.812;37.560;2022-11-22T22:06:27;98651.47;;;3.69;79.44
33496;BME280;19836;55.812;37.560;2022-11-22T22:08:53;98647.84;;;3.74;79.50
33496;BME280;19836;55.812;37.560;2022-11-22T22:11:19;98647.84;;;3.74;79.51
33496;BME280;19836;55.812;37.560;2022-11-22T22:13:45;98639.84;;;3.76;79.76
33496;BME280;19836;55.812;37.560;2022-11-22T22:16:11;98636.31;;;3.77;79.44
33496;BME280;19836;55.812;37.560;2022-11-22T22:18:48;98631.00;;;3.77;79.29
33496;BME280;19836;55.812;37.560;2022-11-22T22:21:15;98631.97;;;3.73;79.33
33496;BME280;19836;55.812;37.560;2022-11-22T22:23:44;98625.78;;;3.74;79.47
33496;BME280;19836;55.812;37.560;2022-11-22T22:26:11;98624.84;;;3.75;79.41
33496;BME280;19836;55.812;37.560;2022-11-22T22:28:40;98618.63;;;3.77;79.28
33496;BME280;19836;55.812;37.560;2022-11-22T22:31:08;98621.19;;;3.82;79.47
33496;BME280;19836;55.812;37.560;2022-11-22T22:33:34;98620.34;;;3.80;79.19
33496;BME280;19836;55.812;37.560;2022-11-22T22:36:00;98616.88;;;3.76;79.24
33496;BME280;19836;55.812;37.560;2022-11-22T22:38:27;98609.84;;;3.75;79.37
33496;BME280;19836;55.812;37.560;2022-11-22T22:40:54;98614.28;;;3.73;79.12
33496;BME280;19836;55.812;37.560;2022-11-22T22:43:23;98612.53;;;3.74;79.17
33496;BME280;19836;55.812;37.560;2022-11-22T22:45:49;98605.53;;;3.70;79.24
33496;BME280;19836;55.812;37.560;2022-11-22T22:48:15;98613.56;;;3.67;79.23
33496;BME280;19836;55.812;37.560;2022-11-22T22:50:41;98609.25;;;3.61;79.21
33496;BME280;19836;55.812;37.560;2022-11-22T22:53:06;98607.59;;;3.56;79.39
33496;BME280;19836;55.812;37.560;2022-11-22T22:55:32;98608.47;;;3.58;79.41
33496;BME280;19836;55.812;37.560;2022-11-22T22:57:58;98608.34;;;3.62;79.30
33496;BME280;19836;55.812;37.560;2022-11-22T23:00:24;98600.44;;;3.61;79.42
33496;BME280;19836;55.812;37.560;2022-11-22T23:02:50;98603.94;;;3.63;79.51
33496;BME280;19836;55.812;37.560;2022-11-22T23:05:15;98603.94;;;3.63;79.40
33496;BME280;19836;55.812;37.560;2022-11-22T23:07:41;98601.31;;;3.61;79.67
33496;BME280;19836;55.812;37.560;2022-11-22T23:10:07;98602.22;;;3.62;79.08
33496;BME280;19836;55.812;37.560;2022-11-22T23:12:33;98589.75;;;3.67;79.42
33496;BME280;19836;55.812;37.560;2022-11-22T23:14:58;98600.25;;;3.70;79.41
33496;BME280;19836;55.812;37.560;2022-11-22T23:17:24;98594.94;;;3.70;79.34
33496;BME280;19836;55.812;37.560;2022-11-22T23:19:50;98599.28;;;3.74;79.33
33496;BME280;19836;55.812;37.560;2022-11-22T23:22:16;98603.66;;;3.76;79.41
33496;BME280;19836;55.812;37.560;2022-11-22T23:24:42;98601.03;;;3.73;79.48
33496;BME280;19836;55.812;37.560;2022-11-22T23:27:08;98595.81;;;3.72;79.50
33496;BME280;19836;55.812;37.560;2022-11-22T23:29:33;98589.75;;;3.67;79.40
33496;BME280;19836;55.812;37.560;2022-11-22T23:32:00;98600.28;;;3.68;79.14
33496;BME280;19836;55.812;37.560;2022-11-22T23:34:26;98605.53;;;3.71;79.37
33496;BME280;19836;55.812;37.560;2022-11-22T23:36:52;98600.25;;;3.70;79.39
33496;BME280;19836;55.812;37.560;2022-11-22T23:39:18;98596.91;;;3.62;79.15
33496;BME280;19836;55.812;37.560;2022-11-22T23:41:43;98599.59;;;3.59;79.22
33496;BME280;19836;55.812;37.560;2022-11-22T23:44:10;98595.19;;;3.59;79.39
33496;BME280;19836;55.812;37.560;2022-11-22T23:46:38;98597.75;;;3.62;79.42
33496;BME280;19836;55.812;37.560;2022-11-22T23:49:04;98602.06;;;3.68;79.41
33496;BME280;19836;55.812;37.560;2022-11-22T23:51:30;98601.97;;;3.71;79.55
33496;BME280;19836;55.812;37.560;2022-11-22T23:53:57;98594.94;;;3.70;79.50
33496;BME280;19836;55.812;37.560;2022-11-22T23:56:24;98592.25;;;3.73;79.40
33496;BME280;19836;55.812;37.560;2022-11-22T23:58:50;98593.06;;;3.75;79.46
